createdAt,value
2022-07-25T00:00:11.712Z,24.80
2022-07-25T00:02:41.608Z,24.55
2022-07-25T00:05:09.051Z,24.46
2022-07-25T00:07:38.575Z,24.24
2022-07-25T00:10:06.561Z,24.46
2022-07-25T00:12:33.693Z,24.59
2022-07-25T00:15:00.646Z,24.60
2022-07-25T00:17:27.593Z,24.62
2022-07-25T00:19:54.508Z,24.70
2022-07-25T00:22:21.497Z,24.62
2022-07-25T00:24:53.021Z,24.52
2022-07-25T00:27:22.469Z,24.59
2022-07-25T00:29:53.900Z,24.63
2022-07-25T00:32:21.033Z,24.64
2022-07-25T00:34:54.849Z,24.66
2022-07-25T00:37:22.354Z,24.72
2022-07-25T00:39:49.433Z,24.70
2022-07-25T00:42:16.305Z,24.61
2022-07-25T00:44:43.180Z,24.62
2022-07-25T00:47:12.244Z,24.61
2022-07-25T00:49:41.394Z,24.37
2022-07-25T00:52:10.834Z,24.33
2022-07-25T00:54:37.720Z,24.40
2022-07-25T00:57:04.873Z,24.29
2022-07-25T00:59:31.773Z,24.21
2022-07-25T01:01:59.176Z,24.22
2022-07-25T01:04:26.225Z,24.23
2022-07-25T01:06:53.614Z,24.34
2022-07-25T01:09:21.231Z,24.39
2022-07-25T01:11:51.102Z,24.38
2022-07-25T01:14:22.030Z,24.25
2022-07-25T01:16:51.137Z,24.20
2022-07-25T01:19:20.657Z,24.30
2022-07-25T01:21:47.621Z,24.25
2022-07-25T01:24:16.991Z,24.29
2022-07-25T01:26:43.843Z,24.25
2022-07-25T01:29:13.215Z,24.20
2022-07-25T01:31:42.755Z,24.09
2022-07-25T01:34:11.811Z,23.95
2022-07-25T01:36:44.164Z,24.00
2022-07-25T01:39:16.088Z,23.97
2022-07-25T01:41:43.225Z,24.16
2022-07-25T01:44:10.351Z,24.17
2022-07-25T01:46:39.700Z,24.09
2022-07-25T01:49:06.875Z,24.05
2022-07-25T01:51:36.383Z,23.84
2022-07-25T01:54:03.958Z,23.96
2022-07-25T01:56:35.864Z,23.92
2022-07-25T01:59:02.835Z,23.84
2022-07-25T02:01:29.739Z,23.83
2022-07-25T02:04:00.141Z,23.77
2022-07-25T02:06:29.350Z,23.93
2022-07-25T02:08:58.786Z,24.01
2022-07-25T02:11:25.689Z,23.81
2022-07-25T02:13:52.569Z,23.88
2022-07-25T02:16:19.533Z,23.98
2022-07-25T02:18:58.669Z,23.80
2022-07-25T02:21:28.332Z,23.97
2022-07-25T02:23:57.784Z,23.84
2022-07-25T02:26:24.767Z,23.78
2022-07-25T02:28:51.885Z,23.62
2022-07-25T02:31:21.167Z,23.81
2022-07-25T02:33:48.026Z,23.63
2022-07-25T02:36:14.986Z,23.70
2022-07-25T02:38:44.375Z,23.69
2022-07-25T02:41:13.477Z,23.51
2022-07-25T02:43:40.389Z,23.45
2022-07-25T02:46:11.911Z,23.45
2022-07-25T02:48:39.073Z,23.35
2022-07-25T02:51:06.280Z,23.49
2022-07-25T02:53:55.931Z,23.36
2022-07-25T02:56:24.401Z,23.39
2022-07-25T02:58:51.453Z,23.30
2022-07-25T03:01:18.378Z,23.29
2022-07-25T03:03:50.006Z,23.19
2022-07-25T03:06:21.723Z,23.12
2022-07-25T03:08:48.609Z,23.03
2022-07-25T03:11:16.840Z,23.06
2022-07-25T03:13:44.180Z,23.19
2022-07-25T03:16:11.366Z,23.16
2022-07-25T03:18:40.863Z,23.23
2022-07-25T03:21:09.915Z,23.12
2022-07-25T03:23:36.874Z,23.18
2022-07-25T03:26:03.838Z,23.02
2022-07-25T03:28:30.670Z,23.11
2022-07-25T03:30:58.026Z,23.13
2022-07-25T03:33:24.868Z,23.06
2022-07-25T03:35:53.979Z,22.96
2022-07-25T03:38:24.648Z,22.95
2022-07-25T03:40:58.994Z,23.00
2022-07-25T03:43:30.733Z,23.07
2022-07-25T03:45:57.690Z,23.05
2022-07-25T03:48:29.633Z,22.94
2022-07-25T03:51:06.694Z,22.97
2022-07-25T03:53:54.480Z,22.94
2022-07-25T03:56:23.926Z,22.66
2022-07-25T03:58:55.435Z,22.79
2022-07-25T04:01:22.498Z,22.88
2022-07-25T04:03:49.688Z,22.92
2022-07-25T04:06:16.613Z,22.84
2022-07-25T04:08:43.457Z,22.65
2022-07-25T04:11:10.349Z,22.75
2022-07-25T04:13:40.360Z,23.08
2022-07-25T04:16:16.328Z,23.06
2022-07-25T04:18:53.292Z,23.12
2022-07-25T04:21:20.880Z,23.10
2022-07-25T04:23:49.505Z,23.18
2022-07-25T04:26:16.794Z,23.11
2022-07-25T04:28:44.027Z,23.29
2022-07-25T04:31:15.504Z,23.40
2022-07-25T04:33:43.029Z,23.44
2022-07-25T04:36:10.216Z,23.54
2022-07-25T04:38:39.782Z,23.57
2022-07-25T04:41:06.783Z,23.70
2022-07-25T04:43:37.128Z,23.70
2022-07-25T04:46:04.296Z,23.80
2022-07-25T04:48:33.522Z,23.85
2022-07-25T04:51:00.579Z,24.01
2022-07-25T04:53:27.701Z,24.06
2022-07-25T04:55:54.621Z,24.14
2022-07-25T04:58:23.664Z,24.05
2022-07-25T05:00:51.104Z,24.08
2022-07-25T05:03:20.198Z,24.16
2022-07-25T05:05:47.104Z,23.94
2022-07-25T05:08:16.068Z,24.12
2022-07-25T05:10:45.846Z,24.19
2022-07-25T05:13:15.241Z,24.07
2022-07-25T05:15:43.204Z,24.09
2022-07-25T05:18:12.393Z,24.27
2022-07-25T05:20:44.025Z,24.14
2022-07-25T05:23:10.864Z,24.27
2022-07-25T05:25:39.844Z,24.38
2022-07-25T05:28:06.790Z,24.28
2022-07-25T05:30:39.359Z,24.27
2022-07-25T05:33:06.862Z,24.40
2022-07-25T05:35:33.744Z,24.35
2022-07-25T05:38:00.776Z,24.43
2022-07-25T05:40:27.649Z,24.41
2022-07-25T05:43:02.389Z,24.71
2022-07-25T05:45:30.172Z,24.96
2022-07-25T05:47:57.004Z,25.19
2022-07-25T05:50:23.922Z,25.16
2022-07-25T05:52:55.502Z,25.55
2022-07-25T05:55:24.443Z,25.54
2022-07-25T05:57:51.320Z,25.70
2022-07-25T06:00:25.123Z,25.77
2022-07-25T06:02:52.146Z,25.85
2022-07-25T06:05:21.345Z,25.87
2022-07-25T06:07:50.484Z,26.04
2022-07-25T06:10:17.503Z,25.90
2022-07-25T06:12:44.455Z,25.60
2022-07-25T06:15:22.882Z,25.84
2022-07-25T06:17:58.269Z,26.01
2022-07-25T06:20:26.368Z,26.24
2022-07-25T06:22:55.833Z,26.25
2022-07-25T06:25:22.919Z,26.40
2022-07-25T06:27:51.869Z,26.55
2022-07-25T06:30:20.365Z,26.59
2022-07-25T06:32:51.586Z,26.87
2022-07-25T06:35:19.091Z,27.03
2022-07-25T06:37:46.584Z,27.08
2022-07-25T06:40:14.354Z,27.24
2022-07-25T06:42:47.185Z,27.01
2022-07-25T06:45:15.378Z,27.32
2022-07-25T06:47:45.571Z,27.71
2022-07-25T06:50:16.120Z,27.97
2022-07-25T06:52:42.990Z,28.11
2022-07-25T06:55:11.301Z,28.41
2022-07-25T06:57:38.417Z,28.32
2022-07-25T07:00:09.977Z,28.52
2022-07-25T07:02:53.397Z,28.56
2022-07-25T07:05:20.873Z,28.48
2022-07-25T07:07:48.391Z,28.40
2022-07-25T07:10:16.351Z,28.17
2022-07-25T07:12:44.117Z,28.70
2022-07-25T07:15:14.511Z,28.76
2022-07-25T07:17:44.041Z,28.96
2022-07-25T07:20:11.875Z,29.43
2022-07-25T07:22:49.309Z,29.22
2022-07-25T07:25:19.655Z,29.61
2022-07-25T07:27:49.976Z,29.92
2022-07-25T07:30:23.690Z,30.23
2022-07-25T07:32:54.315Z,30.32
2022-07-25T07:35:21.394Z,30.46
2022-07-25T07:37:48.880Z,30.64
2022-07-25T07:40:17.992Z,30.84
2022-07-25T07:42:47.988Z,31.22
2022-07-25T07:45:24.182Z,30.94
2022-07-25T07:47:53.368Z,31.41
2022-07-25T07:50:25.949Z,31.66
2022-07-25T07:52:58.613Z,31.64
2022-07-25T07:55:44.483Z,31.70
2022-07-25T07:58:20.196Z,31.51
2022-07-25T08:00:52.031Z,31.45
2022-07-25T08:03:23.560Z,31.51
2022-07-25T08:05:54.995Z,31.83
2022-07-25T08:08:22.070Z,32.10
2022-07-25T08:10:56.944Z,32.15
2022-07-25T08:13:30.349Z,32.30
2022-07-25T08:16:03.293Z,32.61
2022-07-25T08:18:33.978Z,32.27
2022-07-25T08:21:08.240Z,32.22
2022-07-25T08:23:38.882Z,32.95
2022-07-25T08:26:06.771Z,32.97
2022-07-25T08:28:33.812Z,33.28
2022-07-25T08:31:01.254Z,33.32
2022-07-25T08:33:28.420Z,33.10
2022-07-25T08:35:56.513Z,33.29
2022-07-25T08:38:26.412Z,33.49
2022-07-25T08:40:57.377Z,33.75
2022-07-25T08:43:27.262Z,33.73
2022-07-25T08:45:55.690Z,33.40
2022-07-25T08:48:27.050Z,33.54
2022-07-25T08:50:57.447Z,33.96
2022-07-25T08:53:34.401Z,34.06
2022-07-25T08:56:10.641Z,33.81
2022-07-25T08:58:41.812Z,33.85
2022-07-25T09:01:12.724Z,34.15
2022-07-25T09:03:40.375Z,34.33
2022-07-25T09:06:22.568Z,34.49
2022-07-25T09:08:58.945Z,34.55
2022-07-25T09:11:37.377Z,34.67
2022-07-25T09:14:15.089Z,35.06
2022-07-25T09:16:46.425Z,34.81
2022-07-25T09:19:20.994Z,34.33
2022-07-25T09:22:10.351Z,34.06
2022-07-25T09:24:45.169Z,34.52
2022-07-25T09:27:13.038Z,34.65
2022-07-25T09:29:45.408Z,35.15
2022-07-25T09:32:22.101Z,35.21
2022-07-25T09:34:50.864Z,35.17
2022-07-25T09:37:25.209Z,35.10
2022-07-25T09:39:52.491Z,35.32
2022-07-25T09:42:32.214Z,35.54
2022-07-25T09:45:12.631Z,35.69
2022-07-25T09:48:06.676Z,35.99
2022-07-25T09:50:33.878Z,36.29
2022-07-25T09:53:02.779Z,35.85
2022-07-25T09:55:30.821Z,35.28
2022-07-25T09:57:58.069Z,35.55
2022-07-25T10:00:31.827Z,35.42
2022-07-25T10:03:39.157Z,35.86
2022-07-25T10:06:14.488Z,35.44
2022-07-25T10:08:41.991Z,35.21
2022-07-25T10:11:25.841Z,35.56
2022-07-25T10:14:09.155Z,35.84
2022-07-25T10:16:47.048Z,35.94
2022-07-25T10:19:19.621Z,36.17
2022-07-25T10:21:57.883Z,37.21
2022-07-25T10:24:34.419Z,37.07
2022-07-25T10:27:12.790Z,36.71
2022-07-25T10:29:41.643Z,35.93
2022-07-25T10:32:14.058Z,36.03
2022-07-25T10:34:41.000Z,35.80
2022-07-25T10:37:18.390Z,35.49
2022-07-25T10:39:46.333Z,35.18
2022-07-25T10:42:16.078Z,35.57
2022-07-25T10:44:49.980Z,35.79
2022-07-25T10:47:18.094Z,36.37
2022-07-25T10:50:16.467Z,36.06
2022-07-25T10:52:44.425Z,36.37
2022-07-25T10:55:22.500Z,36.66
2022-07-25T10:58:22.158Z,36.81
2022-07-25T11:00:54.170Z,37.17
2022-07-25T11:03:29.181Z,37.22
2022-07-25T11:05:56.036Z,37.55
2022-07-25T11:08:33.058Z,37.91
2022-07-25T11:11:02.748Z,38.07
2022-07-25T11:13:30.433Z,37.62
2022-07-25T11:16:00.735Z,38.06
2022-07-25T11:18:43.626Z,38.12
2022-07-25T11:21:12.682Z,38.50
2022-07-25T11:23:40.765Z,38.23
2022-07-25T11:26:15.292Z,37.81
2022-07-25T11:28:52.063Z,37.69
2022-07-25T11:31:22.952Z,37.27
2022-07-25T11:33:52.408Z,37.00
2022-07-25T11:36:21.976Z,36.78
2022-07-25T11:38:51.717Z,37.12
2022-07-25T11:41:30.274Z,36.95
2022-07-25T11:43:59.788Z,36.88
2022-07-25T11:46:31.219Z,36.65
2022-07-25T11:49:08.938Z,37.41
2022-07-25T11:51:38.909Z,36.75
2022-07-25T11:54:13.310Z,36.94
2022-07-25T11:56:42.825Z,37.57
2022-07-25T11:59:11.338Z,37.40
2022-07-25T12:01:45.020Z,38.04
2022-07-25T12:04:21.001Z,37.14
2022-07-25T12:06:52.118Z,37.33
2022-07-25T12:09:22.379Z,37.42
2022-07-25T12:12:01.362Z,37.57
2022-07-25T12:14:32.327Z,37.15
2022-07-25T12:17:02.225Z,36.99
2022-07-25T12:19:29.309Z,37.22
2022-07-25T12:21:56.188Z,37.77
2022-07-25T12:24:23.573Z,37.81
2022-07-25T12:26:50.455Z,38.41
2022-07-25T12:29:19.821Z,38.82
2022-07-25T12:31:48.794Z,39.03
2022-07-25T12:34:15.720Z,39.13
2022-07-25T12:36:45.571Z,38.78
2022-07-25T12:39:19.719Z,38.61
2022-07-25T12:41:49.708Z,37.98
2022-07-25T12:44:16.621Z,38.15
2022-07-25T12:46:49.219Z,38.22
2022-07-25T12:49:19.747Z,38.19
2022-07-25T12:51:46.679Z,38.10
2022-07-25T12:54:21.862Z,38.58
2022-07-25T12:56:51.675Z,38.87
2022-07-25T12:59:21.236Z,38.63
2022-07-25T13:01:48.505Z,38.59
2022-07-25T13:04:17.779Z,38.74
2022-07-25T13:06:47.177Z,38.22
2022-07-25T13:09:16.610Z,37.90
2022-07-25T13:11:43.642Z,37.23
2022-07-25T13:14:10.751Z,36.29
2022-07-25T13:16:37.986Z,36.37
2022-07-25T13:19:08.828Z,36.62
2022-07-25T13:21:38.956Z,36.47
2022-07-25T13:24:12.621Z,36.13
2022-07-25T13:26:39.988Z,36.20
2022-07-25T13:29:11.877Z,36.04
2022-07-25T13:31:42.912Z,35.87
2022-07-25T13:34:10.741Z,35.93
2022-07-25T13:36:39.505Z,35.80
2022-07-25T13:39:09.272Z,35.89
2022-07-25T13:41:36.363Z,35.34
2022-07-25T13:44:05.917Z,35.49
2022-07-25T13:46:33.795Z,35.29
2022-07-25T13:49:00.959Z,35.10
2022-07-25T13:51:27.888Z,35.00
2022-07-25T13:53:55.097Z,35.18
2022-07-25T13:56:24.297Z,35.20
2022-07-25T13:58:53.739Z,35.26
2022-07-25T14:01:20.746Z,35.09
2022-07-25T14:03:47.852Z,35.08
2022-07-25T14:06:14.751Z,35.29
2022-07-25T14:08:44.801Z,35.22
2022-07-25T14:11:14.683Z,35.20
2022-07-25T14:13:43.504Z,35.26
2022-07-25T14:16:10.419Z,35.69
2022-07-25T14:18:37.357Z,36.17
2022-07-25T14:21:09.328Z,36.42
2022-07-25T14:23:36.245Z,36.72
2022-07-25T14:26:03.437Z,36.96
2022-07-25T14:28:30.610Z,36.94
2022-07-25T14:31:00.226Z,36.68
2022-07-25T14:33:31.719Z,36.71
2022-07-25T14:35:59.626Z,36.67
2022-07-25T14:38:26.575Z,36.12
2022-07-25T14:40:57.952Z,36.14
2022-07-25T14:43:24.836Z,36.10
2022-07-25T14:45:54.308Z,36.19
2022-07-25T14:48:21.182Z,36.19
2022-07-25T14:50:48.078Z,36.20
2022-07-25T14:53:15.033Z,36.01
2022-07-25T14:55:44.164Z,36.40
2022-07-25T14:58:12.097Z,36.31
2022-07-25T15:00:42.745Z,35.98
2022-07-25T15:03:12.838Z,35.94
2022-07-25T15:05:41.598Z,36.05
2022-07-25T15:08:08.496Z,35.68
2022-07-25T15:10:35.396Z,35.29
2022-07-25T15:13:29.278Z,35.38
2022-07-25T15:15:54.695Z,35.46
2022-07-25T15:18:22.056Z,35.40
2022-07-25T15:20:48.943Z,35.30
2022-07-25T15:23:15.881Z,35.21
2022-07-25T15:26:01.063Z,34.82
2022-07-25T15:28:29.061Z,34.86
2022-07-25T15:30:55.978Z,34.36
2022-07-25T15:33:25.941Z,34.47
2022-07-25T15:35:53.144Z,34.75
2022-07-25T15:38:22.941Z,33.80
2022-07-25T15:40:50.136Z,33.20
2022-07-25T15:43:19.192Z,31.97
2022-07-25T15:45:46.867Z,30.93
2022-07-25T15:48:18.074Z,29.76
2022-07-25T15:50:55.912Z,28.79
2022-07-25T15:53:22.885Z,28.67
2022-07-25T15:55:54.500Z,27.95
2022-07-25T15:58:24.508Z,27.93
2022-07-25T16:00:54.458Z,28.02
2022-07-25T16:03:21.685Z,28.09
2022-07-25T16:05:51.668Z,27.92
2022-07-25T16:08:18.704Z,27.80
2022-07-25T16:10:48.258Z,27.30
2022-07-25T16:13:15.157Z,27.23
2022-07-25T16:15:44.262Z,27.02
2022-07-25T16:18:13.284Z,26.94
2022-07-25T16:20:42.583Z,26.86
2022-07-25T16:23:09.715Z,26.92
2022-07-25T16:25:36.583Z,26.79
2022-07-25T16:28:03.624Z,26.79
2022-07-25T16:30:32.987Z,26.80
2022-07-25T16:33:02.996Z,26.90
2022-07-25T16:35:32.610Z,27.11
2022-07-25T16:37:59.504Z,27.37
2022-07-25T16:40:30.899Z,27.75
2022-07-25T16:42:59.320Z,27.76
2022-07-25T16:45:27.214Z,27.86
2022-07-25T16:47:54.448Z,27.74
2022-07-25T16:50:23.961Z,27.55
2022-07-25T16:52:56.368Z,27.28
2022-07-25T16:55:25.476Z,27.47
2022-07-25T16:57:55.031Z,27.25
2022-07-25T17:00:24.915Z,27.21
2022-07-25T17:02:51.858Z,27.13
2022-07-25T17:05:18.885Z,26.97
2022-07-25T17:07:57.122Z,27.03
2022-07-25T17:10:26.649Z,27.16
2022-07-25T17:12:53.726Z,27.38
2022-07-25T17:15:20.779Z,27.06
2022-07-25T17:17:47.749Z,26.63
2022-07-25T17:20:14.811Z,26.62
2022-07-25T17:22:44.081Z,26.63
2022-07-25T17:25:11.848Z,26.67
2022-07-25T17:27:41.851Z,26.37
2022-07-25T17:30:11.904Z,26.54
2022-07-25T17:32:39.600Z,26.37
2022-07-25T17:35:06.749Z,26.41
2022-07-25T17:37:36.189Z,26.51
2022-07-25T17:40:08.645Z,26.30
2022-07-25T17:42:35.543Z,26.36
2022-07-25T17:45:05.810Z,26.40
2022-07-25T17:47:34.689Z,26.49
2022-07-25T17:50:06.814Z,26.47
2022-07-25T17:52:38.193Z,26.34
2022-07-25T17:55:05.776Z,26.43
2022-07-25T17:57:33.100Z,26.35
2022-07-25T18:00:00.795Z,26.15
2022-07-25T18:02:33.846Z,26.29
2022-07-25T18:05:00.781Z,26.14
2022-07-25T18:07:27.624Z,26.22
2022-07-25T18:09:56.666Z,26.28
2022-07-25T18:12:29.445Z,26.18
2022-07-25T18:14:56.622Z,26.16
2022-07-25T18:17:23.461Z,26.06
2022-07-25T18:19:53.390Z,25.91
2022-07-25T18:22:23.213Z,25.89
2022-07-25T18:24:50.088Z,25.82
2022-07-25T18:27:19.740Z,25.81
2022-07-25T18:29:46.682Z,25.93
2022-07-25T18:32:13.566Z,25.86
2022-07-25T18:34:40.578Z,25.83
2022-07-25T18:37:10.511Z,25.79
2022-07-25T18:39:37.378Z,25.79
2022-07-25T18:42:06.355Z,25.96
2022-07-25T18:44:33.320Z,25.81
2022-07-25T18:47:01.430Z,25.83
2022-07-25T18:49:31.265Z,25.86
2022-07-25T18:51:58.227Z,25.85
2022-07-25T18:54:27.200Z,25.93
2022-07-25T18:56:54.151Z,25.66
2022-07-25T18:59:21.140Z,25.64
2022-07-25T19:01:48.067Z,25.59
2022-07-25T19:04:15.392Z,25.54
2022-07-25T19:06:42.312Z,25.61
2022-07-25T19:09:11.822Z,25.60
2022-07-25T19:11:42.365Z,25.53
2022-07-25T19:14:10.089Z,25.69
2022-07-25T19:16:41.957Z,25.66
2022-07-25T19:19:09.719Z,25.59
2022-07-25T19:21:37.747Z,25.72
2022-07-25T19:24:05.718Z,25.66
2022-07-25T19:26:32.995Z,25.54
2022-07-25T19:29:02.935Z,25.43
2022-07-25T19:31:29.977Z,25.04
2022-07-25T19:33:56.983Z,24.39
2022-07-25T19:36:23.864Z,24.66
2022-07-25T19:38:53.801Z,24.76
2022-07-25T19:41:23.433Z,24.60
2022-07-25T19:43:52.450Z,24.22
2022-07-25T19:46:22.203Z,24.23
2022-07-25T19:48:50.173Z,24.35
2022-07-25T19:51:20.210Z,24.29
2022-07-25T19:53:47.140Z,24.41
2022-07-25T19:56:13.986Z,24.45
2022-07-25T19:58:43.230Z,24.49
2022-07-25T20:01:11.813Z,24.55
2022-07-25T20:03:39.077Z,24.58
2022-07-25T20:06:08.261Z,24.25
2022-07-25T20:08:37.199Z,24.22
2022-07-25T20:11:04.202Z,24.06
2022-07-25T20:13:31.086Z,24.04
2022-07-25T20:15:58.708Z,24.20
2022-07-25T20:18:26.145Z,24.26
2022-07-25T20:20:53.358Z,24.09
2022-07-25T20:23:23.421Z,24.02
2022-07-25T20:25:51.032Z,23.86
2022-07-25T20:28:18.037Z,24.02
2022-07-25T20:30:44.989Z,23.94
2022-07-25T20:33:12.032Z,23.89
2022-07-25T20:35:41.579Z,23.64
2022-07-25T20:38:11.840Z,23.86
2022-07-25T20:40:46.352Z,23.96
2022-07-25T20:43:17.570Z,23.94
2022-07-25T20:45:47.885Z,23.78
2022-07-25T20:48:14.873Z,23.67
2022-07-25T20:50:43.956Z,23.66
2022-07-25T20:53:13.398Z,23.73
2022-07-25T20:55:42.795Z,23.71
2022-07-25T20:58:09.720Z,23.65
2022-07-25T21:00:36.707Z,23.83
2022-07-25T21:03:08.636Z,23.16
2022-07-25T21:05:37.646Z,23.25
2022-07-25T21:08:10.951Z,23.36
2022-07-25T21:10:39.431Z,23.31
2022-07-25T21:13:06.546Z,23.38
2022-07-25T21:15:36.606Z,23.23
2022-07-25T21:18:03.673Z,23.28
2022-07-25T21:20:35.129Z,23.27
2022-07-25T21:23:01.958Z,23.28
2022-07-25T21:25:31.836Z,23.29
2022-07-25T21:27:58.781Z,23.29
2022-07-25T21:30:25.942Z,23.30
2022-07-25T21:32:52.825Z,23.29
2022-07-25T21:35:22.375Z,23.44
2022-07-25T21:37:52.386Z,23.37
2022-07-25T21:40:21.801Z,23.31
2022-07-25T21:42:48.693Z,23.29
2022-07-25T21:45:17.940Z,23.09
2022-07-25T21:47:44.946Z,23.00
2022-07-25T21:50:30.935Z,22.88
2022-07-25T21:52:58.560Z,22.84
2022-07-25T21:55:28.802Z,22.91
2022-07-25T21:57:55.673Z,22.86
2022-07-25T22:00:23.188Z,22.70
2022-07-25T22:02:55.334Z,22.56
2022-07-25T22:05:25.017Z,22.56
2022-07-25T22:07:54.644Z,22.67
2022-07-25T22:10:22.497Z,22.61
2022-07-25T22:12:49.685Z,22.52
2022-07-25T22:15:17.333Z,22.32
2022-07-25T22:17:49.768Z,22.44
2022-07-25T22:20:19.434Z,22.46
2022-07-25T22:22:48.895Z,22.57
2022-07-25T22:25:17.104Z,22.54
2022-07-25T22:27:46.463Z,22.46
2022-07-25T22:30:18.874Z,22.61
2022-07-25T22:32:48.105Z,22.52
2022-07-25T22:35:15.985Z,22.61
2022-07-25T22:37:44.382Z,22.51
2022-07-25T22:40:12.735Z,22.46
2022-07-25T22:42:39.603Z,22.16
2022-07-25T22:45:09.626Z,22.16
2022-07-25T22:47:36.519Z,22.06
2022-07-25T22:50:05.359Z,21.96
2022-07-25T22:52:34.908Z,21.82
2022-07-25T22:55:01.806Z,21.70
2022-07-25T22:57:28.675Z,21.74
2022-07-25T22:59:55.606Z,21.73
2022-07-25T23:02:27.970Z,21.98
2022-07-25T23:04:57.075Z,22.02
2022-07-25T23:07:26.058Z,21.68
2022-07-25T23:09:55.040Z,21.59
2022-07-25T23:12:24.141Z,21.73
2022-07-25T23:14:51.032Z,21.68
2022-07-25T23:17:18.113Z,21.66
2022-07-25T23:19:50.109Z,21.56
2022-07-25T23:22:19.466Z,21.82
2022-07-25T23:24:47.019Z,21.60
2022-07-25T23:27:14.277Z,21.48
2022-07-25T23:29:41.980Z,21.45
2022-07-25T23:32:11.457Z,21.68
2022-07-25T23:34:42.887Z,21.67
2022-07-25T23:37:12.554Z,21.58
2022-07-25T23:39:42.440Z,21.39
2022-07-25T23:42:11.471Z,21.41
2022-07-25T23:44:42.091Z,21.62
2022-07-25T23:47:11.365Z,21.53
2022-07-25T23:49:40.908Z,21.44
2022-07-25T23:52:10.308Z,21.54
2022-07-25T23:54:38.725Z,21.45
2022-07-25T23:57:08.908Z,21.32
2022-07-25T23:59:38.879Z,21.40
